Time;durP1;ratioP1;P1;durP2;ratioP2;P2;SDS_P1;SDS_P2;PMS_P1;PMS_P2;Temp;Humidity;BMP_temperature;BMP_pressure;BME280_temperature;BME280_humidity;BME280_pressure;Samples;Min_cycle;Max_cycle;Signal;HPM_P1;HPM_P2
2022/03/07 00:02:06;;;;;;;2.10;1.60;;;20.90;52.40;;;;;;5073546;28;20417;-88
2022/03/07 00:04:32;;;;;;;2.83;1.60;;;20.90;52.40;;;;;;5091108;28;20444;-88
2022/03/07 00:06:58;;;;;;;3.23;2.00;;;20.90;52.40;;;;;;5073194;28;20423;-88
2022/03/07 00:09:23;;;;;;;3.27;2.57;;;20.90;52.40;;;;;;5091446;28;20805;-88
2022/03/07 00:11:49;;;;;;;2.40;1.70;;;20.80;52.30;;;;;;5089814;28;20412;-88
2022/03/07 00:14:15;;;;;;;1.83;1.53;;;20.80;52.30;;;;;;5091776;28;20184;-88
2022/03/07 00:16:41;;;;;;;3.90;1.80;;;20.90;52.40;;;;;;5090864;28;20421;-88
2022/03/07 00:19:07;;;;;;;2.10;1.60;;;20.90;52.40;;;;;;5072869;28;20189;-88
2022/03/07 00:21:34;;;;;;;1.87;1.47;;;20.90;52.40;;;;;;5090432;28;20197;-88
2022/03/07 00:24:00;;;;;;;3.10;1.50;;;20.90;52.40;;;;;;5090971;28;20190;-88
2022/03/07 00:26:26;;;;;;;2.60;1.97;;;20.90;52.40;;;;;;5056844;28;20433;-88
2022/03/07 00:28:52;;;;;;;2.93;2.10;;;20.90;52.40;;;;;;5090359;28;20413;-88
2022/03/07 00:31:20;;;;;;;2.10;1.70;;;20.80;52.30;;;;;;5072977;28;20423;-88
2022/03/07 00:33:46;;;;;;;2.03;1.70;;;20.80;52.40;;;;;;5090681;28;20412;-88
2022/03/07 00:36:12;;;;;;;1.80;1.60;;;20.80;52.40;;;;;;5073186;28;20439;-88
2022/03/07 00:38:37;;;;;;;2.17;1.60;;;20.80;52.40;;;;;;5090094;28;20425;-87
2022/03/07 00:41:04;;;;;;;2.03;1.77;;;20.80;52.40;;;;;;5073028;28;20636;-88
2022/03/07 00:43:30;;;;;;;1.90;1.60;;;20.80;52.40;;;;;;5073488;28;20451;-88
2022/03/07 00:45:55;;;;;;;2.63;1.70;;;20.80;52.40;;;;;;5073648;28;20605;-88
2022/03/07 00:48:21;;;;;;;2.30;1.67;;;20.80;52.40;;;;;;5090368;28;20821;-88
2022/03/07 00:50:50;;;;;;;3.10;1.67;;;20.80;52.40;;;;;;5072880;28;20451;-87
2022/03/07 00:53:18;;;;;;;2.50;1.80;;;20.80;52.40;;;;;;5072775;28;20193;-88
2022/03/07 00:55:45;;;;;;;2.13;1.67;;;20.80;52.40;;;;;;5089648;28;20408;-88
2022/03/07 00:58:11;;;;;;;2.70;1.50;;;20.80;52.40;;;;;;5089994;28;20511;-88
2022/03/07 01:00:37;;;;;;;2.13;1.83;;;20.80;52.40;;;;;;5090128;28;20513;-88
2022/03/07 01:03:09;;;;;;;2.20;1.50;;;20.80;52.40;;;;;;5090282;28;20488;-87
2022/03/07 01:05:35;;;;;;;2.23;1.70;;;20.80;52.40;;;;;;5089847;28;20435;-87
2022/03/07 01:08:00;;;;;;;2.60;1.40;;;20.80;52.40;;;;;;5089464;28;20409;-88
2022/03/07 01:10:27;;;;;;;2.13;1.40;;;20.80;52.40;;;;;;5105096;28;20423;-87
2022/03/07 01:12:53;;;;;;;2.03;1.67;;;20.80;52.40;;;;;;5089828;28;20170;-87
2022/03/07 01:15:19;;;;;;;2.37;1.77;;;20.80;52.40;;;;;;5072502;28;20413;-87
2022/03/07 01:17:45;;;;;;;2.13;1.50;;;20.80;52.40;;;;;;5090071;28;20408;-88
2022/03/07 01:20:11;;;;;;;2.10;1.60;;;20.70;52.30;;;;;;5089787;28;21048;-88
2022/03/07 01:22:38;;;;;;;1.97;1.60;;;20.80;52.40;;;;;;5071901;28;20420;-87
2022/03/07 01:25:05;;;;;;;2.87;2.00;;;20.80;52.40;;;;;;5072105;28;20464;-88
2022/03/07 01:27:32;;;;;;;1.80;1.50;;;20.80;52.40;;;;;;5071652;28;20478;-87
2022/03/07 01:29:58;;;;;;;2.13;1.53;;;20.80;52.40;;;;;;5072006;28;20440;-87
2022/03/07 01:32:24;;;;;;;2.43;1.70;;;20.80;52.90;;;;;;5089440;28;20419;-87
2022/03/07 01:34:50;;;;;;;2.57;1.73;;;20.80;52.40;;;;;;5071614;28;20188;-87
2022/03/07 01:37:16;;;;;;;1.90;1.33;;;20.70;52.30;;;;;;5067917;28;20210;-87
2022/03/07 01:39:42;;;;;;;2.20;1.97;;;20.70;52.30;;;;;;5067517;28;20826;-87
2022/03/07 01:42:08;;;;;;;2.10;1.60;;;20.80;52.40;;;;;;5051899;28;20632;-87
2022/03/07 01:44:35;;;;;;;1.83;1.50;;;20.80;52.40;;;;;;5051339;28;20457;-87
2022/03/07 01:47:00;;;;;;;1.83;1.53;;;20.80;52.40;;;;;;5069113;28;20406;-87
2022/03/07 01:49:27;;;;;;;2.03;1.50;;;20.80;52.40;;;;;;5067936;28;20409;-87
2022/03/07 01:51:53;;;;;;;1.80;1.60;;;20.80;52.40;;;;;;5068821;28;20202;-88
2022/03/07 01:54:22;;;;;;;2.97;1.27;;;20.80;52.40;;;;;;5051096;28;20425;-87
2022/03/07 01:56:50;;;;;;;2.10;1.70;;;20.70;52.30;;;;;;5071253;28;20436;-88
2022/03/07 01:59:22;;;;;;;2.70;1.60;;;20.70;52.30;;;;;;5084289;28;20444;-88
2022/03/07 02:01:48;;;;;;;2.40;1.70;;;20.80;52.40;;;;;;5068900;28;20394;-88
2022/03/07 02:04:15;;;;;;;2.50;1.73;;;20.70;52.40;;;;;;5074308;28;20478;-88
2022/03/07 02:06:41;;;;;;;1.77;1.40;;;20.70;52.40;;;;;;5108818;28;20404;-88
2022/03/07 02:09:08;;;;;;;2.50;1.43;;;20.70;52.40;;;;;;5074811;28;20419;-87
2022/03/07 02:11:35;;;;;;;3.03;1.63;;;20.70;52.40;;;;;;5109210;28;20475;-88
2022/03/07 02:14:18;;;;;;;1.67;1.53;;;20.70;52.40;;;;;;5091330;28;20451;-88
2022/03/07 02:16:44;;;;;;;2.10;1.67;;;20.70;52.40;;;;;;5090603;28;20432;-88
2022/03/07 02:19:11;;;;;;;2.40;1.67;;;20.70;52.40;;;;;;5080654;28;20413;-87
2022/03/07 02:21:41;;;;;;;2.33;1.20;;;20.70;52.40;;;;;;5088311;28;20409;-88
2022/03/07 02:24:07;;;;;;;1.83;1.23;;;20.70;52.40;;;;;;5070014;28;20456;-88
2022/03/07 02:26:33;;;;;;;2.70;1.90;;;20.70;52.50;;;;;;5088471;28;20413;-88
2022/03/07 02:29:00;;;;;;;2.17;1.80;;;20.70;52.50;;;;;;5070553;28;20448;-88
2022/03/07 02:31:26;;;;;;;2.23;1.90;;;20.70;52.50;;;;;;5088426;28;20640;-88
2022/03/07 02:33:52;;;;;;;2.27;1.37;;;20.70;52.50;;;;;;5070777;28;20427;-88
2022/03/07 02:36:18;;;;;;;2.47;1.40;;;20.70;52.50;;;;;;5091241;28;20207;-88
2022/03/07 02:38:44;;;;;;;1.87;1.40;;;20.70;52.50;;;;;;5082829;28;20444;-86
2022/03/07 02:41:09;;;;;;;2.83;1.50;;;20.70;52.50;;;;;;5071311;28;20210;-87
2022/03/07 02:43:35;;;;;;;1.77;1.40;;;20.70;52.40;;;;;;5070354;28;20209;-87
2022/03/07 02:46:01;;;;;;;1.73;1.43;;;20.70;52.50;;;;;;5069507;28;20179;-86
2022/03/07 02:48:27;;;;;;;1.73;1.50;;;20.70;52.50;;;;;;5071032;28;20177;-86
2022/03/07 02:50:57;;;;;;;2.60;1.63;;;20.70;52.40;;;;;;5071653;28;20438;-86
2022/03/07 02:53:25;;;;;;;1.93;1.40;;;20.70;52.40;;;;;;5070962;28;20420;-87
2022/03/07 02:55:51;;;;;;;1.73;1.37;;;20.70;52.40;;;;;;5071264;28;20428;-87
2022/03/07 02:58:17;;;;;;;2.10;1.53;;;20.70;52.40;;;;;;5071287;28;20423;-87
2022/03/07 03:00:43;;;;;;;1.63;1.30;;;20.70;52.40;;;;;;5070234;28;20451;-87
2022/03/07 03:03:09;;;;;;;2.47;1.60;;;20.70;52.40;;;;;;5098429;28;20208;-88
2022/03/07 03:05:35;;;;;;;2.63;1.47;;;20.70;52.40;;;;;;5090794;28;20435;-88
2022/03/07 03:08:01;;;;;;;1.60;1.17;;;20.70;52.40;;;;;;5090170;28;20178;-87
2022/03/07 03:10:27;;;;;;;1.80;1.40;;;20.70;52.40;;;;;;5070072;28;20232;-88
2022/03/07 03:12:52;;;;;;;1.90;1.40;;;20.70;52.40;;;;;;5088168;28;20173;-88
2022/03/07 03:15:18;;;;;;;1.50;1.30;;;20.70;52.40;;;;;;5087814;28;20170;-87
2022/03/07 03:17:45;;;;;;;2.17;1.50;;;20.70;52.40;;;;;;5087750;28;20170;-88
2022/03/07 03:20:13;;;;;;;1.30;1.00;;;20.70;52.50;;;;;;5090375;28;20223;-87
2022/03/07 03:22:39;;;;;;;2.37;1.40;;;20.70;52.40;;;;;;5095039;28;20408;-87
2022/03/07 03:25:06;;;;;;;1.60;1.20;;;20.70;52.50;;;;;;5088185;28;20474;-87
2022/03/07 03:27:32;;;;;;;2.77;1.50;;;20.70;52.40;;;;;;5088216;28;20413;-87
2022/03/07 03:29:58;;;;;;;2.10;1.33;;;20.70;52.50;;;;;;5060632;28;20475;-88
2022/03/07 03:32:25;;;;;;;1.47;1.33;;;20.70;52.50;;;;;;5068097;28;20231;-88
2022/03/07 03:34:51;;;;;;;2.33;1.40;;;20.70;52.50;;;;;;5067926;28;20434;-88
2022/03/07 03:37:17;;;;;;;1.57;1.30;;;20.70;52.50;;;;;;5068230;28;20429;-88
2022/03/07 03:39:43;;;;;;;2.47;1.70;;;20.70;52.50;;;;;;5068370;28;20171;-88
2022/03/07 03:42:08;;;;;;;1.97;1.53;;;20.70;52.50;;;;;;5049845;28;20175;-88
2022/03/07 03:44:34;;;;;;;1.60;1.30;;;20.70;52.50;;;;;;5068354;28;20199;-88
2022/03/07 03:47:00;;;;;;;1.80;1.20;;;20.60;52.40;;;;;;5053671;28;20171;-88
2022/03/07 03:49:28;;;;;;;1.70;1.10;;;20.60;52.40;;;;;;5053902;28;20237;-88
2022/03/07 03:51:54;;;;;;;2.63;1.50;;;20.60;52.40;;;;;;5052886;28;20179;-88
2022/03/07 03:54:20;;;;;;;1.67;1.30;;;20.60;52.40;;;;;;5052859;28;20512;-88
2022/03/07 03:56:46;;;;;;;1.73;1.40;;;20.70;52.50;;;;;;5071071;28;20475;-88
2022/03/07 03:59:12;;;;;;;1.73;1.20;;;20.70;52.50;;;;;;5053070;28;20243;-87
2022/03/07 04:01:37;;;;;;;1.50;1.40;;;20.70;52.50;;;;;;5053040;28;20198;-87
2022/03/07 04:04:03;;;;;;;2.27;1.10;;;20.60;52.50;;;;;;5053532;28;20191;-87
2022/03/07 04:09:51;;;;;;;1.50;1.10;;;20.60;52.40;;;;;;5070200;28;20281;-87
2022/03/07 04:12:17;;;;;;;1.20;1.10;;;20.60;52.50;;;;;;5071002;28;20402;-88
2022/03/07 04:14:43;;;;;;;2.13;1.50;;;20.60;52.50;;;;;;5071492;28;20683;-87
2022/03/07 04:17:08;;;;;;;2.07;1.33;;;20.60;52.50;;;;;;5053368;28;20178;-88
2022/03/07 04:19:34;;;;;;;1.80;1.10;;;20.60;52.50;;;;;;5071126;28;20163;-88
2022/03/07 04:22:00;;;;;;;1.77;1.30;;;20.60;52.40;;;;;;5070816;28;20163;-87
2022/03/07 04:24:30;;;;;;;1.23;0.93;;;20.60;52.40;;;;;;5036360;28;20230;-88
2022/03/07 04:26:56;;;;;;;2.43;1.33;;;20.60;52.40;;;;;;5070853;28;20436;-88
2022/03/07 04:29:22;;;;;;;1.43;1.20;;;20.60;52.50;;;;;;5053604;28;20425;-88
2022/03/07 04:31:48;;;;;;;1.43;1.17;;;20.60;52.40;;;;;;5052729;28;20414;-88
2022/03/07 04:34:14;;;;;;;1.67;1.20;;;20.60;52.40;;;;;;5052928;28;20246;-87
2022/03/07 04:36:40;;;;;;;1.97;1.73;;;20.60;52.40;;;;;;5071122;28;20170;-88
2022/03/07 04:39:08;;;;;;;2.67;1.50;;;20.60;52.40;;;;;;5053526;28;20426;-87
2022/03/07 04:41:34;;;;;;;1.50;1.30;;;20.60;52.40;;;;;;5070844;28;20509;-88
2022/03/07 04:44:01;;;;;;;1.80;1.33;;;20.60;52.40;;;;;;5052346;28;20457;-88
2022/03/07 04:46:28;;;;;;;1.40;1.10;;;20.60;52.40;;;;;;5053141;28;20437;-87
2022/03/07 04:48:54;;;;;;;2.17;1.40;;;20.60;52.40;;;;;;5052224;28;20461;-88
2022/03/07 04:51:19;;;;;;;1.63;1.30;;;20.60;52.40;;;;;;5052385;28;20424;-88
2022/03/07 04:53:45;;;;;;;1.30;1.20;;;20.60;52.40;;;;;;5052541;28;20426;-87
2022/03/07 04:56:11;;;;;;;2.50;1.60;;;20.60;52.40;;;;;;5052017;28;20179;-88
2022/03/07 04:58:37;;;;;;;2.00;1.37;;;20.60;52.40;;;;;;5052575;28;20183;-87
2022/03/07 05:01:05;;;;;;;2.10;1.60;;;20.60;52.40;;;;;;5052822;28;20265;-88
2022/03/07 05:03:31;;;;;;;1.27;1.03;;;20.60;52.40;;;;;;5070141;28;20502;-88
2022/03/07 05:05:57;;;;;;;1.63;1.20;;;20.60;52.40;;;;;;5070575;28;20411;-87
2022/03/07 05:08:22;;;;;;;1.37;1.20;;;20.60;52.40;;;;;;5052689;28;20410;-87
2022/03/07 05:10:48;;;;;;;1.70;1.17;;;20.60;52.50;;;;;;5070000;28;20178;-88
2022/03/07 05:13:14;;;;;;;2.13;1.30;;;20.60;52.50;;;;;;5069199;28;20226;-88
2022/03/07 05:15:40;;;;;;;1.50;1.20;;;20.60;52.50;;;;;;5051198;28;20185;-88
2022/03/07 05:18:06;;;;;;;1.60;1.23;;;20.60;52.50;;;;;;5052249;28;20481;-88
2022/03/07 05:20:32;;;;;;;1.40;1.17;;;20.60;52.50;;;;;;5051748;28;20612;-88
2022/03/07 05:22:59;;;;;;;1.57;1.00;;;20.60;52.50;;;;;;5051054;28;20429;-88
2022/03/07 05:25:25;;;;;;;1.20;1.00;;;20.60;52.50;;;;;;5051787;28;20440;-88
2022/03/07 05:27:51;;;;;;;2.00;1.60;;;20.60;52.50;;;;;;5051661;28;20524;-90
2022/03/07 05:30:19;;;;;;;1.40;1.10;;;20.60;52.50;;;;;;5051107;28;20417;-88
2022/03/07 05:32:50;;;;;;;1.70;1.20;;;20.60;52.60;;;;;;5050751;28;20426;-89
2022/03/07 05:35:17;;;;;;;2.17;1.40;;;20.60;52.60;;;;;;5068025;28;20394;-88
2022/03/07 05:37:43;;;;;;;1.50;1.30;;;20.60;52.60;;;;;;5068035;28;20433;-88
2022/03/07 05:40:12;;;;;;;1.53;1.10;;;20.50;52.50;;;;;;5068897;28;20410;-88
2022/03/07 05:42:39;;;;;;;1.37;1.10;;;20.50;52.50;;;;;;5068322;28;20413;-88
2022/03/07 05:45:06;;;;;;;1.70;1.13;;;20.50;52.50;;;;;;5033844;28;20461;-88
2022/03/07 05:47:32;;;;;;;2.13;1.20;;;20.50;52.50;;;;;;5049905;28;20428;-88
2022/03/07 05:49:58;;;;;;;1.13;1.00;;;20.50;52.50;;;;;;5067590;28;20413;-88
2022/03/07 05:52:25;;;;;;;1.87;1.33;;;20.50;52.60;;;;;;5050124;28;20175;-88
2022/03/07 05:54:51;;;;;;;1.70;1.40;;;20.50;52.50;;;;;;5050228;28;20205;-89
2022/03/07 05:57:16;;;;;;;1.50;1.17;;;20.50;52.50;;;;;;5067693;28;20409;-88
2022/03/07 05:59:43;;;;;;;1.40;1.17;;;20.60;52.60;;;;;;5050449;28;20321;-88
2022/03/07 06:02:08;;;;;;;1.47;1.33;;;20.60;52.60;;;;;;5050345;28;20202;-89
2022/03/07 06:04:35;;;;;;;1.53;1.13;;;20.50;52.50;;;;;;5067150;28;20449;-88
2022/03/07 06:07:01;;;;;;;1.87;1.30;;;20.60;52.70;;;;;;5049914;28;20512;-89
2022/03/07 06:09:27;;;;;;;1.33;1.20;;;20.60;52.70;;;;;;5067524;28;20421;-89
2022/03/07 06:11:53;;;;;;;1.70;1.40;;;20.60;52.70;;;;;;5049383;28;20198;-89
2022/03/07 06:14:18;;;;;;;1.40;1.30;;;20.60;52.70;;;;;;5066879;28;20178;-90
2022/03/07 06:16:44;;;;;;;2.43;1.93;;;20.60;52.70;;;;;;5067439;28;20178;-88
2022/03/07 06:19:10;;;;;;;1.87;1.23;;;20.60;52.70;;;;;;5050362;28;20201;-88
2022/03/07 06:21:36;;;;;;;1.97;1.60;;;20.60;52.70;;;;;;5050842;28;20273;-88
2022/03/07 06:24:01;;;;;;;1.60;1.33;;;20.60;52.70;;;;;;5050699;28;20194;-88
2022/03/07 06:26:30;;;;;;;1.60;1.10;;;20.60;52.70;;;;;;5050705;28;20554;-88
2022/03/07 06:29:15;;;;;;;1.90;1.63;;;20.60;53.20;;;;;;5049814;28;20167;-88
2022/03/07 06:31:52;;;;;;;;;;;;;;;;;;;;;
2022/03/07 06:37:46;;;;;;;3.43;1.50;;;20.60;52.70;;;;;;5026466;28;20454;-88
2022/03/07 06:40:12;;;;;;;2.03;1.33;;;20.60;52.70;;;;;;5009853;28;20535;-88
2022/03/07 06:42:38;;;;;;;1.77;1.43;;;20.60;52.70;;;;;;5009722;28;20427;-88
2022/03/07 06:45:03;;;;;;;1.50;1.27;;;20.60;52.60;;;;;;5025881;28;20304;-88
2022/03/07 06:47:40;;;;;;;2.40;1.27;;;20.70;52.70;;;;;;5043060;28;20176;-88
2022/03/07 06:50:07;;;;;;;2.43;1.70;;;20.70;52.70;;;;;;5009461;28;20415;-88
2022/03/07 06:52:35;;;;;;;1.53;1.20;;;20.70;52.70;;;;;;5026004;28;20426;-88
2022/03/07 06:55:03;;;;;;;2.37;1.70;;;20.70;52.70;;;;;;5026242;28;20424;-88
2022/03/07 06:57:29;;;;;;;3.00;1.63;;;20.70;52.80;;;;;;5043206;28;20446;-88
2022/03/07 06:59:54;;;;;;;1.73;1.20;;;20.70;52.80;;;;;;5009462;28;20442;-88
2022/03/07 07:02:20;;;;;;;1.60;1.20;;;20.80;52.80;;;;;;5042161;28;20922;-88
2022/03/07 07:04:46;;;;;;;5.83;1.67;;;20.80;52.80;;;;;;5026700;28;20208;-88
2022/03/07 07:07:12;;;;;;;1.60;0.97;;;20.80;52.80;;;;;;5009895;28;20176;-88
2022/03/07 07:09:38;;;;;;;1.30;1.10;;;20.80;52.80;;;;;;5042045;28;20172;-88
2022/03/07 07:12:05;;;;;;;1.60;1.50;;;20.90;52.90;;;;;;5007918;28;20180;-87
2022/03/07 07:14:40;;;;;;;1.60;1.03;;;20.90;52.90;;;;;;5019576;28;20909;-88
2022/03/07 07:17:06;;;;;;;1.67;1.30;;;20.80;52.80;;;;;;5007774;28;20515;-88
2022/03/07 07:19:31;;;;;;;1.23;1.13;;;20.90;52.90;;;;;;5041792;28;20698;-88
2022/03/07 07:21:57;;;;;;;1.40;1.30;;;20.90;53.40;;;;;;5012207;28;20184;-87
2022/03/07 07:24:23;;;;;;;1.60;1.13;;;20.90;52.90;;;;;;5044926;28;20286;-88
2022/03/07 07:26:49;;;;;;;2.33;0.93;;;20.90;52.80;;;;;;5047320;28;20238;-87
2022/03/07 07:29:17;;;;;;;2.60;1.47;;;20.90;52.80;;;;;;5047992;28;20393;-88
2022/03/07 07:31:44;;;;;;;1.83;1.20;;;20.90;52.80;;;;;;5084135;28;20242;-88
2022/03/07 07:34:10;;;;;;;1.40;1.20;;;20.90;52.80;;;;;;5090560;28;20423;-88
2022/03/07 07:36:35;;;;;;;2.43;1.33;;;21.00;52.90;;;;;;5072090;28;20502;-88
2022/03/07 07:39:01;;;;;;;1.97;1.17;;;21.00;52.80;;;;;;5072161;28;20253;-88
2022/03/07 07:41:27;;;;;;;1.50;1.10;;;21.00;52.80;;;;;;5089280;28;20170;-88
2022/03/07 07:43:53;;;;;;;1.77;1.10;;;21.00;52.80;;;;;;5071652;28;20448;-88
2022/03/07 07:46:20;;;;;;;2.00;1.30;;;21.00;52.70;;;;;;5072538;28;20170;-88
2022/03/07 07:48:46;;;;;;;1.53;1.17;;;21.00;52.70;;;;;;5072290;28;20569;-88
2022/03/07 07:51:12;;;;;;;2.00;1.20;;;21.00;52.70;;;;;;5072165;28;20420;-88
2022/03/07 07:53:40;;;;;;;1.30;1.00;;;21.00;52.70;;;;;;5072719;28;20413;-88
2022/03/07 07:56:05;;;;;;;1.30;1.07;;;21.00;52.70;;;;;;5090537;28;20438;-88
2022/03/07 07:58:31;;;;;;;2.90;1.37;;;21.00;52.70;;;;;;5090260;28;20456;-88
2022/03/07 08:01:00;;;;;;;1.30;1.10;;;21.00;52.70;;;;;;5071757;28;20174;-88
2022/03/07 08:03:26;;;;;;;1.30;1.10;;;21.10;52.70;;;;;;5089483;28;20191;-88
2022/03/07 08:05:52;;;;;;;1.67;1.10;;;21.10;52.70;;;;;;5072257;28;20456;-88
2022/03/07 08:08:18;;;;;;;1.27;1.07;;;21.10;52.70;;;;;;5089728;28;20169;-87
2022/03/07 08:10:44;;;;;;;1.30;1.10;;;21.10;52.70;;;;;;5070711;28;20220;-88
2022/03/07 08:13:10;;;;;;;1.60;1.37;;;21.10;52.70;;;;;;5052294;28;20807;-87
2022/03/07 08:15:36;;;;;;;3.70;3.40;;;21.10;52.60;;;;;;5052514;28;20418;-87
2022/03/07 08:18:02;;;;;;;1.20;0.90;;;21.10;52.60;;;;;;5069345;28;20424;-88
2022/03/07 08:20:28;;;;;;;1.83;1.03;;;21.10;52.60;;;;;;5051996;28;20174;-89
2022/03/07 08:22:54;;;;;;;1.53;1.03;;;21.10;52.60;;;;;;5051436;28;20413;-89
2022/03/07 08:25:21;;;;;;;1.20;1.10;;;21.10;52.60;;;;;;5070102;28;20221;-89
2022/03/07 08:27:48;;;;;;;1.70;1.23;;;21.10;52.60;;;;;;5071132;28;20415;-89
2022/03/07 08:30:16;;;;;;;1.90;1.20;;;21.10;52.60;;;;;;5085052;28;20412;-89
2022/03/07 08:32:42;;;;;;;1.00;0.90;;;21.10;52.60;;;;;;5090406;28;20917;-89
2022/03/07 08:35:09;;;;;;;1.20;1.07;;;21.10;52.60;;;;;;5110113;28;20408;-89
2022/03/07 08:37:35;;;;;;;1.30;1.00;;;21.10;52.60;;;;;;5091366;28;20443;-90
2022/03/07 08:40:04;;;;;;;1.63;1.53;;;21.10;52.70;;;;;;5109570;28;20408;-88
2022/03/07 08:42:30;;;;;;;1.53;1.10;;;21.10;52.60;;;;;;5090835;28;20415;-87
2022/03/07 08:44:59;;;;;;;2.20;1.00;;;21.10;52.60;;;;;;5110042;28;20482;-88
2022/03/07 08:47:26;;;;;;;1.30;1.10;;;21.10;52.70;;;;;;5077939;28;20413;-88
2022/03/07 08:49:55;;;;;;;1.90;1.30;;;21.10;52.60;;;;;;5072829;28;20437;-87
2022/03/07 08:52:23;;;;;;;1.67;1.33;;;21.10;52.60;;;;;;5073178;28;20455;-88
2022/03/07 08:54:52;;;;;;;1.20;0.90;;;21.10;53.30;;;;;;5090598;28;20416;-87
2022/03/07 08:57:18;;;;;;;2.20;1.20;;;21.10;52.70;;;;;;5073428;28;20484;-87
2022/03/07 08:59:51;;;;;;;5.50;1.73;;;21.10;52.70;;;;;;5073000;28;20440;-87
2022/03/07 09:02:17;;;;;;;2.37;1.73;;;21.10;52.70;;;;;;5073291;28;20413;-88
2022/03/07 09:04:43;;;;;;;1.87;1.27;;;21.10;52.70;;;;;;5072037;28;20467;-87
2022/03/07 09:07:09;;;;;;;2.27;1.30;;;21.20;52.80;;;;;;5072810;28;20421;-87
2022/03/07 09:09:38;;;;;;;1.20;1.00;;;21.20;52.80;;;;;;5072955;28;20413;-87
2022/03/07 09:12:07;;;;;;;1.40;1.03;;;21.20;52.80;;;;;;5090121;28;20446;-88
2022/03/07 09:14:34;;;;;;;1.20;1.00;;;21.20;52.90;;;;;;5090508;28;20414;-88
2022/03/07 09:17:02;;;;;;;1.53;1.17;;;21.20;52.90;;;;;;5072202;28;20492;-88
2022/03/07 09:19:33;;;;;;;1.20;0.97;;;21.20;52.90;;;;;;5073649;28;20427;-87
2022/03/07 09:22:02;;;;;;;1.20;1.00;;;21.20;52.80;;;;;;5066844;28;20419;-87
2022/03/07 09:24:28;;;;;;;3.00;1.10;;;21.20;52.80;;;;;;5093099;28;20505;-87
2022/03/07 09:27:00;;;;;;;1.20;1.10;;;21.20;52.80;;;;;;5110559;28;20412;-87
2022/03/07 09:29:27;;;;;;;1.30;1.10;;;21.30;52.90;;;;;;5109736;28;20412;-87
2022/03/07 09:31:53;;;;;;;1.43;1.30;;;21.30;53.00;;;;;;5110035;28;20498;-87
2022/03/07 09:34:19;;;;;;;1.40;1.10;;;21.30;52.90;;;;;;5110729;28;20427;-88
2022/03/07 09:36:45;;;;;;;1.10;1.00;;;21.30;52.90;;;;;;5091929;28;20192;-87
2022/03/07 09:39:11;;;;;;;1.50;1.20;;;21.30;52.90;;;;;;5092576;28;20489;-87
2022/03/07 09:41:37;;;;;;;1.20;1.10;;;21.30;52.90;;;;;;5111261;28;20229;-87
2022/03/07 09:44:03;;;;;;;1.30;0.93;;;21.40;52.90;;;;;;5092120;28;20205;-87
2022/03/07 09:46:29;;;;;;;1.70;1.10;;;21.40;52.90;;;;;;5092576;28;20428;-87
2022/03/07 09:48:57;;;;;;;1.67;1.10;;;21.40;52.90;;;;;;5075311;28;20430;-87
2022/03/07 09:51:23;;;;;;;1.83;1.03;;;21.40;52.90;;;;;;5092234;28;20412;-87
2022/03/07 09:53:49;;;;;;;1.30;1.00;;;21.40;52.90;;;;;;5092141;28;20819;-87
2022/03/07 09:56:17;;;;;;;1.30;1.20;;;21.40;52.90;;;;;;5092995;28;20420;-87
2022/03/07 09:58:54;;;;;;;1.17;0.90;;;21.40;52.90;;;;;;5092827;28;20408;-87
2022/03/07 10:01:20;;;;;;;1.30;1.00;;;21.40;52.90;;;;;;5092155;28;20411;-87
2022/03/07 10:03:49;;;;;;;3.63;1.27;;;21.40;52.90;;;;;;5092825;28;20473;-88
2022/03/07 10:06:18;;;;;;;2.03;1.10;;;21.40;52.90;;;;;;5093032;28;20174;-87
2022/03/07 10:09:06;;;;;;;2.10;1.17;;;21.40;52.90;;;;;;5092572;28;20414;-87
2022/03/07 10:11:35;;;;;;;1.33;1.10;;;21.50;53.00;;;;;;5092680;28;20404;-87
2022/03/07 10:14:04;;;;;;;1.10;1.00;;;21.40;52.90;;;;;;5111429;28;20734;-87
2022/03/07 10:16:43;;;;;;;1.00;0.80;;;21.50;53.00;;;;;;5091999;28;20496;-88
2022/03/07 10:19:15;;;;;;;1.50;1.10;;;21.50;53.00;;;;;;5092647;28;20419;-88
2022/03/07 10:21:46;;;;;;;1.10;0.90;;;21.40;52.90;;;;;;5110159;28;20404;-88
2022/03/07 10:24:14;;;;;;;1.70;0.90;;;21.50;53.00;;;;;;5110174;28;20463;-89
2022/03/07 10:26:42;;;;;;;1.60;1.20;;;21.50;53.00;;;;;;5092295;28;20419;-89
2022/03/07 10:29:11;;;;;;;1.30;1.00;;;21.50;53.00;;;;;;5092718;28;20463;-88
2022/03/07 10:31:44;;;;;;;1.30;1.00;;;21.50;53.00;;;;;;5075037;28;20427;-87
2022/03/07 10:34:15;;;;;;;1.40;1.10;;;21.50;53.00;;;;;;5091740;28;20803;-87
2022/03/07 10:36:45;;;;;;;1.67;1.30;;;21.50;53.00;;;;;;5109239;28;20423;-88
2022/03/07 10:39:15;;;;;;;4.03;1.10;;;21.50;53.00;;;;;;5092133;28;20435;-87
2022/03/07 10:41:46;;;;;;;1.20;0.80;;;21.50;53.00;;;;;;5092633;28;20447;-87
2022/03/07 10:44:28;;;;;;;1.57;1.03;;;21.50;53.00;;;;;;5092088;28;20443;-87
2022/03/07 10:47:21;;;;;;;1.90;1.10;;;21.50;52.90;;;;;;5091878;28;20414;-87
2022/03/07 10:50:10;;;;;;;1.70;1.50;;;21.50;52.90;;;;;;5109625;28;20487;-87
2022/03/07 10:52:41;;;;;;;1.30;1.20;;;21.50;52.90;;;;;;5091542;28;20412;-87
2022/03/07 10:55:09;;;;;;;1.20;0.90;;;21.50;53.00;;;;;;5109849;28;20392;-87
2022/03/07 10:57:41;;;;;;;1.43;1.00;;;21.50;53.00;;;;;;5095374;28;20427;-87
2022/03/07 11:00:17;;;;;;;1.50;1.00;;;21.60;53.00;;;;;;5095573;28;20408;-87
2022/03/07 11:02:49;;;;;;;1.17;0.90;;;21.50;53.00;;;;;;5114716;28;20395;-88
2022/03/07 11:05:17;;;;;;;1.20;1.10;;;21.50;53.00;;;;;;5095915;28;20466;-88
2022/03/07 11:07:46;;;;;;;1.33;1.03;;;21.60;53.00;;;;;;5095404;28;20419;-88
2022/03/07 11:10:14;;;;;;;2.40;0.90;;;21.60;53.00;;;;;;5095636;28;20447;-88
2022/03/07 11:12:46;;;;;;;1.67;1.10;;;21.60;53.00;;;;;;5112529;28;20411;-88
2022/03/07 11:15:18;;;;;;;1.20;1.10;;;21.60;53.00;;;;;;5113305;28;20392;-88
2022/03/07 11:17:46;;;;;;;1.30;1.00;;;21.60;53.00;;;;;;5076885;28;20507;-86
2022/03/07 11:20:15;;;;;;;1.13;1.00;;;21.60;53.00;;;;;;5093007;28;20444;-86
2022/03/07 11:22:41;;;;;;;1.63;1.07;;;21.60;53.00;;;;;;5085387;28;20425;-86
2022/03/07 11:25:08;;;;;;;2.30;1.10;;;21.60;53.00;;;;;;5113807;28;20474;-86
2022/03/07 11:27:36;;;;;;;1.30;1.10;;;21.60;52.90;;;;;;5095348;28;20419;-86
2022/03/07 11:30:19;;;;;;;1.23;1.03;;;21.60;52.90;;;;;;5095763;28;20420;-86
2022/03/07 11:32:46;;;;;;;1.70;0.97;;;21.60;52.90;;;;;;5095863;28;20411;-86
2022/03/07 11:35:13;;;;;;;1.63;1.27;;;21.60;52.90;;;;;;5113643;28;20408;-86
2022/03/07 11:37:39;;;;;;;3.00;1.90;;;21.60;52.90;;;;;;5111847;28;20435;-86
2022/03/07 11:40:17;;;;;;;3.70;2.73;;;21.60;52.90;;;;;;5106648;28;20415;-86
2022/03/07 11:42:43;;;;;;;5.80;4.67;;;21.60;52.90;;;;;;5113326;28;20398;-86
2022/03/07 11:45:16;;;;;;;13.60;8.33;;;21.60;52.90;;;;;;5112795;28;20447;-86
2022/03/07 11:47:46;;;;;;;22.30;14.77;;;21.60;52.90;;;;;;5095155;28;20173;-86
2022/03/07 11:50:12;;;;;;;31.97;20.30;;;21.60;52.90;;;;;;5079519;28;20403;-86
2022/03/07 11:52:38;;;;;;;46.37;28.63;;;21.60;52.90;;;;;;5104797;28;20414;-86
2022/03/07 11:55:16;;;;;;;58.23;33.10;;;21.60;52.90;;;;;;5095048;28;20483;-86
2022/03/07 11:57:44;;;;;;;74.23;42.50;;;21.60;52.90;;;;;;5078279;28;20424;-86
2022/03/07 12:00:26;;;;;;;83.40;45.30;;;21.60;52.90;;;;;;5095633;28;20420;-87
2022/03/07 12:02:55;;;;;;;92.33;46.37;;;21.60;52.90;;;;;;5113021;28;20427;-86
2022/03/07 12:05:29;;;;;;;90.77;49.07;;;21.60;52.90;;;;;;5094943;28;20798;-86
2022/03/07 12:08:14;;;;;;;101.17;53.40;;;21.60;53.00;;;;;;5095795;28;20411;-86
2022/03/07 12:10:57;;;;;;;95.43;54.50;;;21.60;53.00;;;;;;5095251;28;20415;-86
2022/03/07 12:13:25;;;;;;;102.80;59.07;;;21.60;53.00;;;;;;5113131;28;20414;-86
2022/03/07 12:15:53;;;;;;;108.57;55.60;;;21.50;53.00;;;;;;5095720;28;20411;-86
2022/03/07 12:18:21;;;;;;;99.37;58.13;;;21.60;53.00;;;;;;5095443;28;20442;-86
2022/03/07 12:20:52;;;;;;;107.90;56.93;;;21.60;53.30;;;;;;5112933;28;20408;-87
2022/03/07 12:23:24;;;;;;;110.70;57.80;;;21.60;53.00;;;;;;5095076;28;20469;-87
2022/03/07 12:26:05;;;;;;;128.53;60.40;;;21.60;53.10;;;;;;5094608;28;20431;-87
2022/03/07 12:28:35;;;;;;;117.50;59.23;;;21.60;53.10;;;;;;5112925;28;20400;-87
2022/03/07 12:31:02;;;;;;;111.80;59.70;;;21.60;53.10;;;;;;5095337;28;20411;-86
2022/03/07 12:33:31;;;;;;;111.67;64.57;;;21.50;53.00;;;;;;5095438;28;20420;-86
2022/03/07 12:36:08;;;;;;;122.60;59.17;;;21.50;53.00;;;;;;5094558;28;20416;-86
2022/03/07 12:38:42;;;;;;;119.63;62.73;;;21.50;53.00;;;;;;5094563;28;20455;-86
2022/03/07 12:41:09;;;;;;;116.33;64.50;;;21.50;53.00;;;;;;5094769;28;20423;-87
2022/03/07 12:43:34;;;;;;;112.07;59.50;;;21.50;53.10;;;;;;5112517;28;20829;-86
2022/03/07 12:46:01;;;;;;;110.33;62.30;;;21.50;53.00;;;;;;5094305;28;20443;-86
2022/03/07 12:48:36;;;;;;;123.40;62.07;;;21.50;53.00;;;;;;5094213;28;20170;-87
2022/03/07 12:51:15;;;;;;;119.13;61.17;;;21.50;53.00;;;;;;5112726;28;20412;-86
2022/03/07 12:53:49;;;;;;;106.23;56.97;;;21.50;53.00;;;;;;5112795;28;20396;-86
2022/03/07 12:56:20;;;;;;;115.97;59.17;;;21.50;53.10;;;;;;5094544;28;20422;-87